createdAt,value
2018-06-13T00:00:59.543Z,50.46
2018-06-13T00:03:25.551Z,49.89
2018-06-13T00:05:51.549Z,49.93
2018-06-13T00:08:17.533Z,49.56
2018-06-13T00:10:43.528Z,49.89
2018-06-13T00:13:09.545Z,51.33
2018-06-13T00:15:35.582Z,50.90
2018-06-13T00:18:01.603Z,51.77
2018-06-13T00:20:27.602Z,51.25
2018-06-13T00:22:53.611Z,51.29
2018-06-13T00:25:19.585Z,51.27
2018-06-13T00:27:45.600Z,50.18
2018-06-13T00:30:11.591Z,49.96
2018-06-13T00:32:37.591Z,50.04
2018-06-13T00:35:03.613Z,49.38
2018-06-13T00:37:29.635Z,51.04
2018-06-13T00:39:55.617Z,52.34
2018-06-13T00:42:21.626Z,50.08
2018-06-13T00:44:47.647Z,51.67
2018-06-13T00:47:13.703Z,52.57
2018-06-13T00:49:39.719Z,51.81
2018-06-13T00:52:05.706Z,50.58
2018-06-13T00:54:31.736Z,51.79
2018-06-13T00:56:57.772Z,51.44
2018-06-13T00:59:23.772Z,50.88
2018-06-13T01:01:49.762Z,50.83
2018-06-13T01:04:15.748Z,51.08
2018-06-13T01:06:41.740Z,51.44
2018-06-13T01:09:07.730Z,50.57
2018-06-13T01:11:33.728Z,51.40
2018-06-13T01:13:59.743Z,50.57
2018-06-13T01:16:25.753Z,50.90
2018-06-13T01:18:51.762Z,50.31
2018-06-13T01:21:17.762Z,50.80
2018-06-13T01:23:43.767Z,50.83
2018-06-13T01:26:09.761Z,52.53
2018-06-13T01:28:35.755Z,49.71
2018-06-13T01:31:01.803Z,51.56
2018-06-13T01:33:27.826Z,51.24
2018-06-13T01:35:53.860Z,51.18
2018-06-13T01:38:19.860Z,50.69
2018-06-13T01:40:45.842Z,51.30
2018-06-13T01:43:11.845Z,50.96
2018-06-13T01:45:37.856Z,50.68
2018-06-13T01:48:03.849Z,51.70
2018-06-13T01:50:29.827Z,51.32
2018-06-13T01:52:55.840Z,51.62
2018-06-13T01:55:21.843Z,51.37
2018-06-13T01:57:47.871Z,51.50
2018-06-13T02:00:13.887Z,52.00
2018-06-13T02:02:39.884Z,52.97
2018-06-13T02:05:05.863Z,52.02
2018-06-13T02:07:31.876Z,51.87
2018-06-13T02:09:57.899Z,51.54
2018-06-13T02:12:23.899Z,51.54
2018-06-13T02:14:49.916Z,51.99
2018-06-13T02:17:15.934Z,52.50
2018-06-13T02:19:41.924Z,51.93
2018-06-13T02:22:07.908Z,50.39
2018-06-13T02:24:33.968Z,51.56
2018-06-13T02:27:00.003Z,51.14
2018-06-13T02:29:26.017Z,50.63
2018-06-13T02:31:52.004Z,52.18
2018-06-13T02:34:18.022Z,52.54
2018-06-13T02:36:44.012Z,51.35
2018-06-13T02:39:10.004Z,52.26
2018-06-13T02:41:35.991Z,52.26
2018-06-13T02:44:02.079Z,51.79
2018-06-13T02:46:28.081Z,52.27
2018-06-13T02:48:54.097Z,51.27
2018-06-13T02:51:20.129Z,51.35
2018-06-13T02:53:46.152Z,51.00
2018-06-13T02:56:12.157Z,50.97
2018-06-13T02:58:38.216Z,53.48
2018-06-13T03:01:04.254Z,52.22
2018-06-13T03:03:30.297Z,50.95
2018-06-13T03:05:56.288Z,52.67
2018-06-13T03:08:22.309Z,52.71
2018-06-13T03:10:48.296Z,53.28
2018-06-13T03:13:14.328Z,51.60
2018-06-13T03:15:40.320Z,53.30
2018-06-13T03:18:06.314Z,51.89
2018-06-13T03:20:32.368Z,53.12
2018-06-13T03:22:58.375Z,52.65
2018-06-13T03:25:24.373Z,52.12
2018-06-13T03:27:50.375Z,52.63
2018-06-13T03:30:16.411Z,52.88
2018-06-13T03:32:42.420Z,52.46
2018-06-13T03:35:08.447Z,51.28
2018-06-13T03:37:34.450Z,51.59
2018-06-13T03:40:00.515Z,52.62
2018-06-13T03:42:26.564Z,52.39
2018-06-13T03:44:52.572Z,53.63
2018-06-13T03:47:18.576Z,53.11
2018-06-13T03:49:44.578Z,51.65
2018-06-13T03:52:10.578Z,51.59
2018-06-13T03:54:36.585Z,51.59
2018-06-13T03:57:02.679Z,52.43
2018-06-13T03:59:28.673Z,52.65
2018-06-13T04:01:54.681Z,52.30
2018-06-13T04:04:20.692Z,51.92
2018-06-13T04:06:46.680Z,52.06
2018-06-13T04:09:12.661Z,54.66
2018-06-13T04:11:38.618Z,55.37
2018-06-13T04:14:04.581Z,53.84
2018-06-13T04:16:30.531Z,50.56
2018-06-13T04:18:56.554Z,50.85
2018-06-13T04:21:22.516Z,53.28
2018-06-13T04:23:48.462Z,50.63
2018-06-13T04:26:14.397Z,51.48
2018-06-13T04:28:40.375Z,52.82
2018-06-13T04:31:06.327Z,53.47
2018-06-13T04:33:32.256Z,51.38
2018-06-13T04:35:58.230Z,51.40
2018-06-13T04:38:24.185Z,51.44
2018-06-13T04:40:50.137Z,52.49
2018-06-13T04:43:16.096Z,51.89
2018-06-13T04:45:42.065Z,53.04
2018-06-13T04:48:08.008Z,53.17
2018-06-13T04:50:33.965Z,51.43
2018-06-13T04:52:59.911Z,53.46
2018-06-13T04:55:25.878Z,51.91
2018-06-13T04:57:51.838Z,51.58
2018-06-13T05:00:17.800Z,52.16
2018-06-13T05:02:43.782Z,52.60
2018-06-13T05:05:09.725Z,52.96
2018-06-13T05:07:35.669Z,51.72
2018-06-13T05:10:01.631Z,53.35
2018-06-13T05:12:27.587Z,52.21
2018-06-13T05:14:53.586Z,53.60
2018-06-13T05:17:19.505Z,55.19
2018-06-13T05:19:45.469Z,53.29
2018-06-13T05:22:11.467Z,55.68
2018-06-13T05:24:37.423Z,53.59
2018-06-13T05:27:03.480Z,53.21
2018-06-13T05:29:29.464Z,54.51
2018-06-13T05:31:55.448Z,56.19
2018-06-13T05:34:21.420Z,56.84
2018-06-13T05:36:47.383Z,57.06
2018-06-13T05:39:13.322Z,57.07
2018-06-13T05:41:39.272Z,59.07
2018-06-13T05:44:05.204Z,58.87
2018-06-13T05:46:31.171Z,58.28
2018-06-13T05:48:57.127Z,57.60
2018-06-13T05:51:23.075Z,57.43
2018-06-13T05:53:49.037Z,57.78
2018-06-13T05:56:15.037Z,57.13
2018-06-13T05:58:40.978Z,57.76
2018-06-13T06:01:06.990Z,58.44
2018-06-13T06:03:32.925Z,57.28
2018-06-13T06:05:58.917Z,57.59
2018-06-13T06:08:24.954Z,59.37
2018-06-13T06:10:50.958Z,54.61
2018-06-13T06:13:16.949Z,55.58
2018-06-13T06:15:42.909Z,56.46
2018-06-13T06:18:08.975Z,54.95
2018-06-13T06:20:34.935Z,54.45
2018-06-13T06:23:00.877Z,56.32
2018-06-13T06:25:26.812Z,54.93
2018-06-13T06:27:52.756Z,54.36
2018-06-13T06:30:18.739Z,54.54
2018-06-13T06:32:44.699Z,55.08
2018-06-13T06:35:10.656Z,53.62
2018-06-13T06:37:36.599Z,53.58
2018-06-13T06:40:02.529Z,55.26
2018-06-13T06:42:28.460Z,55.63
2018-06-13T06:44:54.403Z,55.66
2018-06-13T06:47:20.359Z,54.14
2018-06-13T06:49:46.331Z,53.77
2018-06-13T06:52:12.281Z,52.03
2018-06-13T06:54:38.213Z,53.24
2018-06-13T06:57:04.194Z,55.11
2018-06-13T06:59:30.152Z,54.56
2018-06-13T07:01:56.122Z,54.97
2018-06-13T07:04:22.097Z,56.16
2018-06-13T07:06:48.065Z,54.26
2018-06-13T07:09:14.016Z,53.80
2018-06-13T07:11:39.964Z,54.48
2018-06-13T07:14:05.924Z,53.24
2018-06-13T07:16:31.885Z,53.68
2018-06-13T07:18:57.907Z,55.55
2018-06-13T07:21:23.827Z,56.57
2018-06-13T07:23:49.784Z,55.38
2018-06-13T07:26:15.793Z,54.72
2018-06-13T07:28:41.748Z,55.72
2018-06-13T07:31:07.752Z,54.27
2018-06-13T07:33:33.742Z,54.33
2018-06-13T07:35:59.676Z,53.96
2018-06-13T07:38:25.614Z,55.55
2018-06-13T07:40:51.548Z,55.61
2018-06-13T07:43:17.488Z,55.16
2018-06-13T07:45:43.448Z,55.07
2018-06-13T07:48:09.416Z,55.25
2018-06-13T07:50:35.357Z,56.23
2018-06-13T07:53:01.316Z,55.96
2018-06-13T07:55:27.368Z,55.41
2018-06-13T07:57:53.312Z,55.69
2018-06-13T08:00:19.256Z,55.52
2018-06-13T08:02:45.197Z,55.81
2018-06-13T08:05:11.183Z,55.19
2018-06-13T08:07:37.148Z,55.42
2018-06-13T08:10:03.118Z,54.61
2018-06-13T08:12:29.055Z,53.53
2018-06-13T08:14:54.996Z,54.60
2018-06-13T08:17:20.933Z,53.96
2018-06-13T08:19:46.870Z,53.80
2018-06-13T08:22:12.832Z,54.18
2018-06-13T08:24:38.784Z,53.55
2018-06-13T08:27:04.736Z,53.01
2018-06-13T08:29:30.724Z,52.43
2018-06-13T08:31:56.686Z,52.99
2018-06-13T08:34:22.633Z,53.11
2018-06-13T08:36:48.564Z,51.94
2018-06-13T08:39:14.514Z,52.69
2018-06-13T08:41:40.451Z,52.51
2018-06-13T08:44:06.395Z,53.89
2018-06-13T08:46:32.416Z,54.12
2018-06-13T08:48:58.384Z,54.45
2018-06-13T08:51:24.340Z,54.48
2018-06-13T08:53:50.327Z,53.65
2018-06-13T08:56:16.285Z,53.40
2018-06-13T08:58:42.227Z,53.56
2018-06-13T09:01:08.161Z,53.16
2018-06-13T09:03:34.131Z,52.73
2018-06-13T09:06:00.096Z,53.05
2018-06-13T09:08:26.139Z,51.79
2018-06-13T09:10:52.124Z,51.13
2018-06-13T09:13:18.105Z,50.16
2018-06-13T09:15:44.063Z,50.03
2018-06-13T09:18:10.011Z,50.60
2018-06-13T09:20:35.994Z,51.42
2018-06-13T09:23:01.942Z,52.31
2018-06-13T09:25:27.886Z,51.65
2018-06-13T09:27:53.847Z,52.06
2018-06-13T09:30:19.876Z,51.57
2018-06-13T09:32:45.839Z,50.37
2018-06-13T09:35:11.796Z,50.28
2018-06-13T09:37:37.867Z,49.60
2018-06-13T09:40:03.857Z,50.05
2018-06-13T09:42:29.837Z,50.05
2018-06-13T09:44:55.781Z,49.70
2018-06-13T09:47:23.454Z,49.67
2018-06-13T09:49:47.724Z,49.59
2018-06-13T09:52:13.659Z,49.34
2018-06-13T09:54:39.672Z,47.83
2018-06-13T09:57:05.697Z,48.34
2018-06-13T09:59:31.729Z,47.52
2018-06-13T10:01:57.721Z,47.48
2018-06-13T10:04:23.768Z,46.09
2018-06-13T10:06:49.814Z,45.83
2018-06-13T10:09:15.822Z,45.82
2018-06-13T10:11:42.872Z,45.97
2018-06-13T10:14:08.917Z,45.25
2018-06-13T10:16:39.121Z,45.57
2018-06-13T10:19:05.165Z,45.69
2018-06-13T10:21:31.307Z,44.91
2018-06-13T10:23:58.325Z,45.51
2018-06-13T10:26:24.430Z,46.55
2018-06-13T10:28:50.558Z,45.73
2018-06-13T10:31:16.604Z,46.05
2018-06-13T10:33:42.629Z,47.26
2018-06-13T10:36:08.668Z,47.05
2018-06-13T10:38:34.708Z,46.81
2018-06-13T10:41:00.728Z,45.00
2018-06-13T10:43:26.715Z,44.68
2018-06-13T10:45:52.770Z,44.79
2018-06-13T10:48:18.783Z,44.94
2018-06-13T10:50:44.839Z,45.29
2018-06-13T10:53:10.838Z,45.89
2018-06-13T10:55:36.994Z,45.53
2018-06-13T10:58:03.004Z,44.92
2018-06-13T11:00:28.999Z,45.65
2018-06-13T11:02:55.033Z,45.04
2018-06-13T11:05:21.065Z,46.23
2018-06-13T11:07:47.080Z,46.37
2018-06-13T11:10:13.140Z,45.37
2018-06-13T11:12:40.116Z,46.11
2018-06-13T11:15:06.207Z,44.85
2018-06-13T11:17:32.344Z,46.16
2018-06-13T11:19:58.380Z,46.67
2018-06-13T11:22:24.484Z,45.90
2018-06-13T11:24:50.583Z,45.01
2018-06-13T11:27:16.538Z,45.39
2018-06-13T11:29:42.562Z,44.89
2018-06-13T11:32:08.563Z,43.68
2018-06-13T11:34:34.579Z,44.37
2018-06-13T11:37:00.666Z,44.27
2018-06-13T11:39:26.620Z,44.73
2018-06-13T11:41:53.648Z,44.00
2018-06-13T11:44:19.632Z,44.14
2018-06-13T11:46:45.625Z,43.97
2018-06-13T11:49:11.616Z,45.01
2018-06-13T11:51:37.646Z,61.75
2018-06-13T11:54:03.680Z,64.43
2018-06-13T11:56:29.673Z,63.38
2018-06-13T11:58:55.645Z,63.42
2018-06-13T12:01:21.679Z,62.57
2018-06-13T12:03:47.654Z,63.60
2018-06-13T12:06:13.737Z,62.29
2018-06-13T12:08:39.670Z,64.86
2018-06-13T12:11:06.398Z,64.35
2018-06-13T12:13:32.437Z,60.32
2018-06-13T12:15:58.445Z,62.35
2018-06-13T12:18:24.407Z,60.76
2018-06-13T12:20:50.440Z,62.34
2018-06-13T12:23:16.466Z,60.42
2018-06-13T12:25:42.530Z,64.08
2018-06-13T12:28:08.522Z,65.26
2018-06-13T12:30:35.208Z,64.59
2018-06-13T12:33:01.151Z,65.75
2018-06-13T12:35:27.143Z,64.86
2018-06-13T12:37:53.104Z,63.74
2018-06-13T12:40:19.206Z,63.78
2018-06-13T12:42:45.218Z,63.03
2018-06-13T12:45:11.210Z,63.06
2018-06-13T12:47:37.207Z,63.65
2018-06-13T12:50:03.179Z,63.36
2018-06-13T12:52:29.175Z,62.34
2018-06-13T12:54:55.151Z,64.51
2018-06-13T12:57:21.096Z,62.64
2018-06-13T12:59:47.033Z,63.26
2018-06-13T13:02:12.965Z,63.17
2018-06-13T13:04:38.974Z,61.06
2018-06-13T13:07:04.915Z,61.61
2018-06-13T13:09:30.846Z,62.30
2018-06-13T13:11:56.864Z,61.47
2018-06-13T13:14:22.791Z,60.87
2018-06-13T13:16:48.765Z,60.13
2018-06-13T13:19:14.726Z,60.74
2018-06-13T13:21:40.673Z,61.74
2018-06-13T13:24:06.628Z,60.71
2018-06-13T13:26:32.588Z,58.89
2018-06-13T13:28:58.516Z,56.11
2018-06-13T13:31:24.476Z,58.47
2018-06-13T13:33:50.453Z,59.12
2018-06-13T13:36:16.398Z,57.37
2018-06-13T13:38:42.334Z,57.61
2018-06-13T13:41:08.325Z,55.67
2018-06-13T13:43:34.266Z,56.31
2018-06-13T13:46:00.580Z,56.68
2018-06-13T13:48:26.493Z,54.99
2018-06-13T13:50:52.438Z,53.78
2018-06-13T13:53:18.378Z,58.44
2018-06-13T13:55:44.338Z,55.03
2018-06-13T13:58:10.299Z,56.38
2018-06-13T14:00:36.289Z,55.14
2018-06-13T14:03:02.233Z,54.82
2018-06-13T14:05:28.197Z,54.56
2018-06-13T14:07:54.157Z,58.12
2018-06-13T14:10:20.118Z,59.01
2018-06-13T14:12:46.081Z,55.46
2018-06-13T14:15:12.036Z,53.42
2018-06-13T14:17:38.013Z,55.32
2018-06-13T14:20:03.998Z,55.19
2018-06-13T14:22:30.062Z,57.52
2018-06-13T14:24:56.836Z,54.61
2018-06-13T14:27:22.786Z,56.25
2018-06-13T14:29:48.717Z,60.04
2018-06-13T14:32:14.727Z,56.37
2018-06-13T14:34:40.708Z,56.13
2018-06-13T14:37:06.652Z,55.84
2018-06-13T14:39:32.662Z,58.29
2018-06-13T14:41:58.677Z,56.15
2018-06-13T14:44:24.631Z,58.16
2018-06-13T14:46:50.703Z,57.11
2018-06-13T14:49:16.666Z,56.07
2018-06-13T14:51:42.600Z,57.53
2018-06-13T14:54:08.548Z,59.24
2018-06-13T14:56:34.560Z,57.90
2018-06-13T14:59:00.481Z,56.14
2018-06-13T15:01:26.429Z,56.84
2018-06-13T15:03:52.624Z,56.51
2018-06-13T15:06:18.578Z,56.13
2018-06-13T15:08:44.546Z,58.99
2018-06-13T15:11:10.528Z,59.83
2018-06-13T15:13:36.499Z,60.38
2018-06-13T15:16:02.489Z,60.53
2018-06-13T15:18:28.474Z,58.27
2018-06-13T15:20:54.469Z,59.63
2018-06-13T15:23:20.488Z,59.29
2018-06-13T15:25:46.515Z,60.69
2018-06-13T15:28:12.516Z,60.02
2018-06-13T15:30:39.501Z,58.08
2018-06-13T15:33:05.481Z,57.00
2018-06-13T15:35:31.462Z,54.96
2018-06-13T15:37:57.447Z,59.46
2018-06-13T15:40:23.468Z,58.46
2018-06-13T15:42:49.537Z,60.15
2018-06-13T15:45:15.574Z,58.19
2018-06-13T15:47:41.575Z,56.24
2018-06-13T15:50:07.815Z,57.98
2018-06-13T15:52:33.854Z,58.37
2018-06-13T15:55:00.076Z,58.21
2018-06-13T15:57:26.241Z,56.72
2018-06-13T15:59:52.337Z,60.36
2018-06-13T16:02:18.339Z,60.95
2018-06-13T16:04:44.302Z,56.24
2018-06-13T16:07:10.284Z,60.68
2018-06-13T16:09:36.267Z,59.44
2018-06-13T16:12:02.209Z,60.41
2018-06-13T16:14:28.337Z,59.84
2018-06-13T16:16:54.324Z,60.28
2018-06-13T16:19:20.322Z,60.73
2018-06-13T16:21:46.345Z,61.87
2018-06-13T16:24:12.379Z,59.80
2018-06-13T16:26:38.364Z,60.48
2018-06-13T16:29:04.680Z,59.80
2018-06-13T16:31:30.689Z,61.33
2018-06-13T16:33:56.674Z,62.98
2018-06-13T16:36:22.636Z,59.91
2018-06-13T16:38:48.632Z,61.93
2018-06-13T16:41:14.657Z,62.28
2018-06-13T16:43:40.695Z,60.45
2018-06-13T16:46:07.193Z,60.67
2018-06-13T16:48:33.312Z,59.31
2018-06-13T16:50:59.224Z,57.77
2018-06-13T16:53:25.213Z,58.68
2018-06-13T16:55:51.190Z,58.95
2018-06-13T16:58:18.255Z,57.25
2018-06-13T17:00:44.277Z,57.93
2018-06-13T17:03:10.283Z,58.46
2018-06-13T17:05:36.296Z,61.35
2018-06-13T17:08:02.258Z,59.56
2018-06-13T17:10:28.240Z,56.54
2018-06-13T17:12:54.241Z,60.75
2018-06-13T17:15:20.315Z,59.15
2018-06-13T17:17:46.357Z,59.43
2018-06-13T17:20:12.356Z,58.59
2018-06-13T17:22:38.342Z,58.56
2018-06-13T17:25:04.328Z,58.81
2018-06-13T17:27:30.337Z,59.20
2018-06-13T17:29:56.383Z,58.54
